Tropical Cyclones
[Index]
Main Index Home Page Stock Weather Photos Extreme Storms Discussion Storm News and Storm Chasing Reports Tropical Cyclones / Hurricanes / Typhoons Weather Data and Links Wild Fires / Bushfires Weather Observation Techniques Weather Picture Catalogue Tornado Pictures and Reports Stock Video Footage and DVDs for sale
Season 2017-2018 Tropical Cyclone KELVIN Track Map
Season 2017-2018 Summaries: [BoM-AU] [JTWC-AU] [JTWC-SIO] [JTWC-SPAC] [JTWC-SH]
<<- Previous TC | JTWC 2017-2018 Season | Next TC ->>

click for intensity scale information  Lat/long Grid: Show Hide

 Date Labels: Show Hide

Joint Typhoon Warning Centre Cyclone Data

Name: KELVIN

13 Feb 2018 18:00 UTC to 21 Feb 2018 06:00 UTC

    date/time    lat    long     hPa   cat  kts
2018-02-13 18   13.1   131.2    1006         15          
2018-02-14 00   13.5   130.0    1005         15          
2018-02-14 06   14.0   129.0    1004         20          
2018-02-14 12   14.5   128.3    1003         25          
2018-02-14 18   14.9   126.8    1003         25          
2018-02-15 00   15.2   126.1    1003         25          
2018-02-15 06   16.1   125.5    1002         25          
2018-02-15 12   16.8   124.5    1002         25          
2018-02-15 18   17.2   123.2    1001         25          
2018-02-16 00   17.5   122.4    1000         25          
2018-02-16 06   17.9   121.6     998         30          
2018-02-16 12   18.3   120.9     996         35          
2018-02-16 18   18.5   120.6     996         35          
2018-02-17 00   18.7   120.4     994    1    40          
2018-02-17 06   19.0   120.4     991    1    45          
2018-02-17 12   19.2   120.6     989    1    50          
2018-02-17 18   19.2   121.0     981    2    60          
2018-02-17 18   19.2   121.0     981    2    60          
2018-02-18 00   19.4   121.5     977    2    70          
2018-02-18 00   19.4   121.5     977    2    70          
2018-02-18 00   19.4   121.5     977    2    70          
2018-02-18 06   19.7   122.0     971    3    75          
2018-02-18 06   19.7   122.0     971    3    75          
2018-02-18 06   19.7   122.0     971    3    75          
2018-02-18 12   20.4   122.4     979    2    65          
2018-02-18 12   20.4   122.4     979    2    65          
2018-02-18 12   20.4   122.4     979    2    65          
2018-02-18 18   20.9   122.7     981    2    60          
2018-02-18 18   20.9   122.7     981    2    60          
2018-02-19 00   21.4   123.0     984    2    55          
2018-02-19 00   21.4   123.0     984    2    55          
2018-02-19 06   22.1   123.3     986    1    50          
2018-02-19 06   22.1   123.3     986    1    50          
2018-02-19 12   22.7   123.5     990    1    45          
2018-02-19 18   23.2   123.7     992    1    40          
2018-02-20 00   23.8   124.0     992    1    40          
2018-02-20 06   24.4   124.3     994         35          
2018-02-20 12   25.2   124.4     994         35          
2018-02-20 18   26.3   124.7     997         30          
2018-02-21 00   27.3   125.1    1001         25          
2018-02-21 06   28.4   126.0    1004         20          
Winds are 1-min average.

Tropical cyclone tracks developed by Michael Bath using data from the Joint Typhoon Warning Centre Best Tracks and Google Maps.


[Australian Severe Weather index] [Copyright Notice] [Email Contacts] [Search This Site] [Privacy Policy]
Document: tropical_cyclone_kelvin.htm Updated: 12 March 2020